sensor_id;sensor_type;location;lat;lon;timestamp;temperature;humidity
39815;DHT22;25495;45.948;4.568;2023-02-01T00:01:45;4.30;99.90
39815;DHT22;25495;45.948;4.568;2023-02-01T00:04:10;4.40;99.90
39815;DHT22;25495;45.948;4.568;2023-02-01T00:06:36;4.40;99.90
39815;DHT22;25495;45.948;4.568;2023-02-01T00:09:02;4.20;99.90
39815;DHT22;25495;45.948;4.568;2023-02-01T00:11:28;4.20;99.90
39815;DHT22;25495;45.948;4.568;2023-02-01T00:13:53;4.20;99.90
39815;DHT22;25495;45.948;4.568;2023-02-01T00:16:23;4.30;99.90
39815;DHT22;25495;45.948;4.568;2023-02-01T00:18:50;4.30;99.90
39815;DHT22;25495;45.948;4.568;2023-02-01T00:21:17;4.30;99.90
39815;DHT22;25495;45.948;4.568;2023-02-01T00:23:43;4.30;99.90
39815;DHT22;25495;45.948;4.568;2023-02-01T00:28:52;4.30;99.90
39815;DHT22;25495;45.948;4.568;2023-02-01T00:31:18;4.30;99.90
39815;DHT22;25495;45.948;4.568;2023-02-01T00:33:46;4.30;99.90
39815;DHT22;25495;45.948;4.568;2023-02-01T00:36:12;4.30;99.90
39815;DHT22;25495;45.948;4.568;2023-02-01T00:38:37;4.20;99.90
39815;DHT22;25495;45.948;4.568;2023-02-01T00:41:08;4.20;99.90
39815;DHT22;25495;45.948;4.568;2023-02-01T00:43:35;4.30;99.90
39815;DHT22;25495;45.948;4.568;2023-02-01T00:46:00;4.30;99.90
39815;DHT22;25495;45.948;4.568;2023-02-01T00:48:26;4.20;99.90
39815;DHT22;25495;45.948;4.568;2023-02-01T00:50:52;4.30;99.90
39815;DHT22;25495;45.948;4.568;2023-02-01T00:53:17;4.30;99.90
39815;DHT22;25495;45.948;4.568;2023-02-01T00:55:46;4.20;99.90
39815;DHT22;25495;45.948;4.568;2023-02-01T00:58:12;4.20;99.90
39815;DHT22;25495;45.948;4.568;2023-02-01T01:00:37;4.20;99.90
39815;DHT22;25495;45.948;4.568;2023-02-01T01:03:03;4.20;99.90
39815;DHT22;25495;45.948;4.568;2023-02-01T01:05:48;4.10;99.90
39815;DHT22;25495;45.948;4.568;2023-02-01T01:08:15;4.20;99.90
39815;DHT22;25495;45.948;4.568;2023-02-01T01:10:41;4.20;99.90
39815;DHT22;25495;45.948;4.568;2023-02-01T01:13:07;4.20;99.90
39815;DHT22;25495;45.948;4.568;2023-02-01T01:15:36;4.20;99.90
39815;DHT22;25495;45.948;4.568;2023-02-01T01:18:02;4.20;99.90
39815;DHT22;25495;45.948;4.568;2023-02-01T01:20:28;4.10;99.90
39815;DHT22;25495;45.948;4.568;2023-02-01T01:22:54;4.10;99.90
39815;DHT22;25495;45.948;4.568;2023-02-01T01:25:19;4.10;99.90
39815;DHT22;25495;45.948;4.568;2023-02-01T01:27:46;4.10;99.90
39815;DHT22;25495;45.948;4.568;2023-02-01T01:30:12;4.20;99.90
39815;DHT22;25495;45.948;4.568;2023-02-01T01:32:37;4.20;99.90
39815;DHT22;25495;45.948;4.568;2023-02-01T01:35:03;4.20;99.90
39815;DHT22;25495;45.948;4.568;2023-02-01T01:37:29;4.20;99.90
39815;DHT22;25495;45.948;4.568;2023-02-01T01:39:54;4.20;99.90
39815;DHT22;25495;45.948;4.568;2023-02-01T01:42:21;4.10;99.90
39815;DHT22;25495;45.948;4.568;2023-02-01T01:45:00;4.20;99.90
39815;DHT22;25495;45.948;4.568;2023-02-01T01:47:26;4.10;99.90
39815;DHT22;25495;45.948;4.568;2023-02-01T01:49:54;4.10;99.90
39815;DHT22;25495;45.948;4.568;2023-02-01T01:52:20;4.00;99.90
39815;DHT22;25495;45.948;4.568;2023-02-01T01:54:47;4.00;99.90
39815;DHT22;25495;45.948;4.568;2023-02-01T01:57:15;4.10;99.90
39815;DHT22;25495;45.948;4.568;2023-02-01T01:59:43;4.10;99.90
39815;DHT22;25495;45.948;4.568;2023-02-01T02:02:12;4.10;99.90
39815;DHT22;25495;45.948;4.568;2023-02-01T02:04:37;3.90;99.90
39815;DHT22;25495;45.948;4.568;2023-02-01T02:07:04;4.00;99.90
39815;DHT22;25495;45.948;4.568;2023-02-01T02:09:31;3.90;99.90
39815;DHT22;25495;45.948;4.568;2023-02-01T02:11:56;3.90;99.90
39815;DHT22;25495;45.948;4.568;2023-02-01T02:14:22;3.80;99.90
39815;DHT22;25495;45.948;4.568;2023-02-01T02:16:55;3.80;99.90
39815;DHT22;25495;45.948;4.568;2023-02-01T02:27:32;3.80;99.90
39815;DHT22;25495;45.948;4.568;2023-02-01T02:40:18;3.50;99.90
39815;DHT22;25495;45.948;4.568;2023-02-01T02:46:01;3.40;99.90
39815;DHT22;25495;45.948;4.568;2023-02-01T02:48:49;3.40;99.90
39815;DHT22;25495;45.948;4.568;2023-02-01T02:51:27;3.40;99.90
39815;DHT22;25495;45.948;4.568;2023-02-01T02:54:13;3.30;99.90
39815;DHT22;25495;45.948;4.568;2023-02-01T02:56:59;3.30;99.90
39815;DHT22;25495;45.948;4.568;2023-02-01T02:59:45;3.10;99.90
39815;DHT22;25495;45.948;4.568;2023-02-01T03:02:30;3.20;99.90
39815;DHT22;25495;45.948;4.568;2023-02-01T03:05:14;3.20;99.90
39815;DHT22;25495;45.948;4.568;2023-02-01T03:10:32;3.30;99.90
39815;DHT22;25495;45.948;4.568;2023-02-01T03:12:58;3.20;99.90
39815;DHT22;25495;45.948;4.568;2023-02-01T03:15:42;3.20;99.90
39815;DHT22;25495;45.948;4.568;2023-02-01T03:18:16;3.20;99.90
39815;DHT22;25495;45.948;4.568;2023-02-01T03:20:44;3.20;99.90
39815;DHT22;25495;45.948;4.568;2023-02-01T03:23:12;3.30;99.90
39815;DHT22;25495;45.948;4.568;2023-02-01T03:25:39;3.30;99.90
39815;DHT22;25495;45.948;4.568;2023-02-01T03:28:06;3.30;99.90
39815;DHT22;25495;45.948;4.568;2023-02-01T03:30:43;3.30;99.90
39815;DHT22;25495;45.948;4.568;2023-02-01T03:33:13;3.30;99.90
39815;DHT22;25495;45.948;4.568;2023-02-01T03:38:29;3.20;99.90
39815;DHT22;25495;45.948;4.568;2023-02-01T03:40:59;3.20;99.90
39815;DHT22;25495;45.948;4.568;2023-02-01T03:43:26;3.10;99.90
39815;DHT22;25495;45.948;4.568;2023-02-01T03:45:54;3.10;99.90
39815;DHT22;25495;45.948;4.568;2023-02-01T03:48:22;3.00;99.90
39815;DHT22;25495;45.948;4.568;2023-02-01T03:50:49;3.00;99.90
39815;DHT22;25495;45.948;4.568;2023-02-01T03:53:19;3.10;99.90
39815;DHT22;25495;45.948;4.568;2023-02-01T03:55:45;3.00;99.90
39815;DHT22;25495;45.948;4.568;2023-02-01T03:58:18;3.00;99.90
39815;DHT22;25495;45.948;4.568;2023-02-01T04:00:46;3.00;99.90
39815;DHT22;25495;45.948;4.568;2023-02-01T04:03:15;3.10;99.90
39815;DHT22;25495;45.948;4.568;2023-02-01T04:05:40;3.10;99.90
39815;DHT22;25495;45.948;4.568;2023-02-01T04:08:06;3.20;99.90
39815;DHT22;25495;45.948;4.568;2023-02-01T04:10:32;3.20;99.90
39815;DHT22;25495;45.948;4.568;2023-02-01T04:12:58;3.30;99.90
39815;DHT22;25495;45.948;4.568;2023-02-01T04:15:23;3.40;99.90
39815;DHT22;25495;45.948;4.568;2023-02-01T04:17:49;3.30;99.90
39815;DHT22;25495;45.948;4.568;2023-02-01T04:20:15;3.40;99.90
39815;DHT22;25495;45.948;4.568;2023-02-01T04:22:40;3.40;99.90
39815;DHT22;25495;45.948;4.568;2023-02-01T04:25:06;3.40;99.90
39815;DHT22;25495;45.948;4.568;2023-02-01T04:27:33;3.50;99.90
39815;DHT22;25495;45.948;4.568;2023-02-01T04:29:59;3.50;99.90
39815;DHT22;25495;45.948;4.568;2023-02-01T04:32:24;3.50;99.90
39815;DHT22;25495;45.948;4.568;2023-02-01T04:34:50;3.60;99.90
39815;DHT22;25495;45.948;4.568;2023-02-01T04:37:16;3.50;99.90
39815;DHT22;25495;45.948;4.568;2023-02-01T04:39:41;3.60;99.90
39815;DHT22;25495;45.948;4.568;2023-02-01T04:42:07;3.60;99.90
39815;DHT22;25495;45.948;4.568;2023-02-01T04:44:33;3.70;99.90
39815;DHT22;25495;45.948;4.568;2023-02-01T04:46:59;3.70;99.90
39815;DHT22;25495;45.948;4.568;2023-02-01T04:49:25;3.70;99.90
39815;DHT22;25495;45.948;4.568;2023-02-01T04:51:52;3.80;99.90
39815;DHT22;25495;45.948;4.568;2023-02-01T04:54:17;3.90;99.90
39815;DHT22;25495;45.948;4.568;2023-02-01T04:56:43;3.80;99.90
39815;DHT22;25495;45.948;4.568;2023-02-01T04:59:10;3.80;99.90
39815;DHT22;25495;45.948;4.568;2023-02-01T05:01:35;3.90;99.90
39815;DHT22;25495;45.948;4.568;2023-02-01T05:04:01;3.90;99.90
39815;DHT22;25495;45.948;4.568;2023-02-01T05:06:26;3.80;99.90
39815;DHT22;25495;45.948;4.568;2023-02-01T05:08:52;3.90;99.90
39815;DHT22;25495;45.948;4.568;2023-02-01T05:11:17;3.90;99.90
39815;DHT22;25495;45.948;4.568;2023-02-01T05:14:02;3.90;99.90
39815;DHT22;25495;45.948;4.568;2023-02-01T05:16:27;3.90;99.90
39815;DHT22;25495;45.948;4.568;2023-02-01T05:18:53;4.00;99.90
39815;DHT22;25495;45.948;4.568;2023-02-01T05:21:18;4.00;99.90
39815;DHT22;25495;45.948;4.568;2023-02-01T05:23:44;4.00;99.90
39815;DHT22;25495;45.948;4.568;2023-02-01T05:26:28;4.00;99.90
39815;DHT22;25495;45.948;4.568;2023-02-01T05:28:54;4.00;99.90
39815;DHT22;25495;45.948;4.568;2023-02-01T05:31:20;3.90;99.90
39815;DHT22;25495;45.948;4.568;2023-02-01T05:33:46;3.90;99.90
39815;DHT22;25495;45.948;4.568;2023-02-01T05:36:11;3.90;99.90
39815;DHT22;25495;45.948;4.568;2023-02-01T05:38:37;4.00;99.90
39815;DHT22;25495;45.948;4.568;2023-02-01T05:41:02;4.00;99.90
39815;DHT22;25495;45.948;4.568;2023-02-01T05:43:28;4.00;99.90
39815;DHT22;25495;45.948;4.568;2023-02-01T05:45:54;3.90;99.90
39815;DHT22;25495;45.948;4.568;2023-02-01T05:48:19;4.00;99.90
39815;DHT22;25495;45.948;4.568;2023-02-01T05:50:45;4.00;99.90
39815;DHT22;25495;45.948;4.568;2023-02-01T05:53:11;4.00;99.90
39815;DHT22;25495;45.948;4.568;2023-02-01T05:55:37;4.00;99.90
39815;DHT22;25495;45.948;4.568;2023-02-01T05:58:03;4.00;99.90
39815;DHT22;25495;45.948;4.568;2023-02-01T06:00:29;3.90;99.90
39815;DHT22;25495;45.948;4.568;2023-02-01T06:02:54;3.90;99.90
39815;DHT22;25495;45.948;4.568;2023-02-01T06:05:20;3.90;99.90
39815;DHT22;25495;45.948;4.568;2023-02-01T06:07:45;3.90;99.90
39815;DHT22;25495;45.948;4.568;2023-02-01T06:10:12;4.00;99.90
39815;DHT22;25495;45.948;4.568;2023-02-01T06:12:37;3.90;99.90
39815;DHT22;25495;45.948;4.568;2023-02-01T06:15:03;3.90;99.90
39815;DHT22;25495;45.948;4.568;2023-02-01T06:17:28;3.90;99.90
39815;DHT22;25495;45.948;4.568;2023-02-01T06:19:54;3.90;99.90
39815;DHT22;25495;45.948;4.568;2023-02-01T06:22:20;3.90;99.90
39815;DHT22;25495;45.948;4.568;2023-02-01T06:24:47;3.90;99.90
39815;DHT22;25495;45.948;4.568;2023-02-01T06:27:13;3.90;99.90
39815;DHT22;25495;45.948;4.568;2023-02-01T06:29:38;3.90;99.90
39815;DHT22;25495;45.948;4.568;2023-02-01T06:32:04;3.90;99.90
39815;DHT22;25495;45.948;4.568;2023-02-01T06:34:29;3.90;99.90
39815;DHT22;25495;45.948;4.568;2023-02-01T06:36:55;3.90;99.90
39815;DHT22;25495;45.948;4.568;2023-02-01T06:39:21;3.90;99.90
39815;DHT22;25495;45.948;4.568;2023-02-01T06:41:47;3.90;99.90
39815;DHT22;25495;45.948;4.568;2023-02-01T06:44:12;3.90;99.90
39815;DHT22;25495;45.948;4.568;2023-02-01T06:46:38;3.90;99.90
39815;DHT22;25495;45.948;4.568;2023-02-01T06:49:04;3.90;99.90
39815;DHT22;25495;45.948;4.568;2023-02-01T06:51:29;4.00;99.90
39815;DHT22;25495;45.948;4.568;2023-02-01T06:53:55;4.00;99.90
39815;DHT22;25495;45.948;4.568;2023-02-01T06:56:21;4.00;99.90
39815;DHT22;25495;45.948;4.568;2023-02-01T06:58:47;3.90;99.90
39815;DHT22;25495;45.948;4.568;2023-02-01T07:01:13;3.90;99.90
39815;DHT22;25495;45.948;4.568;2023-02-01T07:03:38;3.90;99.90
39815;DHT22;25495;45.948;4.568;2023-02-01T07:06:04;4.00;99.90
39815;DHT22;25495;45.948;4.568;2023-02-01T07:08:31;3.90;99.90
39815;DHT22;25495;45.948;4.568;2023-02-01T07:10:57;3.90;99.90
39815;DHT22;25495;45.948;4.568;2023-02-01T07:13:22;3.90;99.90
39815;DHT22;25495;45.948;4.568;2023-02-01T07:15:48;4.00;99.90
39815;DHT22;25495;45.948;4.568;2023-02-01T07:18:14;4.00;99.90
39815;DHT22;25495;45.948;4.568;2023-02-01T07:20:39;4.00;99.90
39815;DHT22;25495;45.948;4.568;2023-02-01T07:23:05;4.00;99.90
39815;DHT22;25495;45.948;4.568;2023-02-01T07:25:31;4.00;99.90
39815;DHT22;25495;45.948;4.568;2023-02-01T07:27:56;4.00;99.90
39815;DHT22;25495;45.948;4.568;2023-02-01T07:30:22;4.00;99.90
39815;DHT22;25495;45.948;4.568;2023-02-01T07:32:48;4.00;99.90
39815;DHT22;25495;45.948;4.568;2023-02-01T07:35:13;4.00;99.90
39815;DHT22;25495;45.948;4.568;2023-02-01T07:37:39;4.10;99.90
39815;DHT22;25495;45.948;4.568;2023-02-01T07:40:05;4.00;99.90
39815;DHT22;25495;45.948;4.568;2023-02-01T07:42:31;4.00;99.90
39815;DHT22;25495;45.948;4.568;2023-02-01T07:44:56;4.00;99.90
39815;DHT22;25495;45.948;4.568;2023-02-01T07:47:22;4.10;99.90
39815;DHT22;25495;45.948;4.568;2023-02-01T07:49:48;4.10;99.90
39815;DHT22;25495;45.948;4.568;2023-02-01T07:52:13;4.00;99.90
39815;DHT22;25495;45.948;4.568;2023-02-01T07:54:42;4.00;99.90
39815;DHT22;25495;45.948;4.568;2023-02-01T07:57:08;4.20;99.90
39815;DHT22;25495;45.948;4.568;2023-02-01T07:59:36;4.50;99.90
39815;DHT22;25495;45.948;4.568;2023-02-01T08:02:21;4.50;99.90
39815;DHT22;25495;45.948;4.568;2023-02-01T08:04:47;4.80;99.90
39815;DHT22;25495;45.948;4.568;2023-02-01T08:07:13;4.70;99.90
39815;DHT22;25495;45.948;4.568;2023-02-01T08:09:38;4.70;99.90
39815;DHT22;25495;45.948;4.568;2023-02-01T08:12:04;5.10;99.90
39815;DHT22;25495;45.948;4.568;2023-02-01T08:14:29;5.50;99.90
39815;DHT22;25495;45.948;4.568;2023-02-01T08:16:55;5.60;99.90
39815;DHT22;25495;45.948;4.568;2023-02-01T08:19:20;5.40;99.90
39815;DHT22;25495;45.948;4.568;2023-02-01T08:21:46;5.40;99.90
39815;DHT22;25495;45.948;4.568;2023-02-01T08:24:13;6.00;99.90
39815;DHT22;25495;45.948;4.568;2023-02-01T08:26:39;5.70;99.90
39815;DHT22;25495;45.948;4.568;2023-02-01T08:29:05;6.50;99.90
39815;DHT22;25495;45.948;4.568;2023-02-01T08:31:32;6.30;99.90
39815;DHT22;25495;45.948;4.568;2023-02-01T08:36:24;6.00;99.90
39815;DHT22;25495;45.948;4.568;2023-02-01T08:38:49;5.70;99.90
39815;DHT22;25495;45.948;4.568;2023-02-01T08:41:16;5.70;99.90
39815;DHT22;25495;45.948;4.568;2023-02-01T08:43:42;5.50;99.90
39815;DHT22;25495;45.948;4.568;2023-02-01T08:46:08;5.60;99.90
39815;DHT22;25495;45.948;4.568;2023-02-01T08:48:34;5.60;99.90
39815;DHT22;25495;45.948;4.568;2023-02-01T08:51:01;5.20;99.90
39815;DHT22;25495;45.948;4.568;2023-02-01T08:53:27;5.00;99.90
39815;DHT22;25495;45.948;4.568;2023-02-01T08:55:52;5.00;99.90
39815;DHT22;25495;45.948;4.568;2023-02-01T08:58:18;4.90;99.90
39815;DHT22;25495;45.948;4.568;2023-02-01T09:00:44;4.90;99.90
39815;DHT22;25495;45.948;4.568;2023-02-01T09:03:10;4.90;99.90
39815;DHT22;25495;45.948;4.568;2023-02-01T09:05:36;5.10;99.90
39815;DHT22;25495;45.948;4.568;2023-02-01T09:08:02;5.30;99.90
39815;DHT22;25495;45.948;4.568;2023-02-01T09:10:28;5.30;99.90
39815;DHT22;25495;45.948;4.568;2023-02-01T09:12:53;5.20;99.90
39815;DHT22;25495;45.948;4.568;2023-02-01T09:15:19;5.10;99.90
39815;DHT22;25495;45.948;4.568;2023-02-01T09:17:44;5.10;99.90
39815;DHT22;25495;45.948;4.568;2023-02-01T09:20:11;5.00;99.90
39815;DHT22;25495;45.948;4.568;2023-02-01T09:22:36;5.10;99.90
39815;DHT22;25495;45.948;4.568;2023-02-01T09:25:02;5.00;99.90
39815;DHT22;25495;45.948;4.568;2023-02-01T09:27:28;5.10;99.90
39815;DHT22;25495;45.948;4.568;2023-02-01T09:29:53;5.20;99.90
39815;DHT22;25495;45.948;4.568;2023-02-01T09:32:22;5.40;99.90
39815;DHT22;25495;45.948;4.568;2023-02-01T09:34:48;5.40;99.90
39815;DHT22;25495;45.948;4.568;2023-02-01T09:37:14;5.40;99.90
39815;DHT22;25495;45.948;4.568;2023-02-01T09:39:40;5.40;99.90
39815;DHT22;25495;45.948;4.568;2023-02-01T09:44:42;5.50;99.90
39815;DHT22;25495;45.948;4.568;2023-02-01T09:47:12;5.50;99.90
39815;DHT22;25495;45.948;4.568;2023-02-01T09:49:39;5.60;99.90
39815;DHT22;25495;45.948;4.568;2023-02-01T09:52:10;5.80;99.90
39815;DHT22;25495;45.948;4.568;2023-02-01T09:54:48;5.70;99.90
39815;DHT22;25495;45.948;4.568;2023-02-01T09:59:42;5.70;99.90
39815;DHT22;25495;45.948;4.568;2023-02-01T10:02:22;5.70;99.90
39815;DHT22;25495;45.948;4.568;2023-02-01T10:04:48;5.60;99.90
39815;DHT22;25495;45.948;4.568;2023-02-01T10:07:20;5.40;99.90
39815;DHT22;25495;45.948;4.568;2023-02-01T10:09:52;5.30;99.90
39815;DHT22;25495;45.948;4.568;2023-02-01T10:27:41;6.10;99.90
39815;DHT22;25495;45.948;4.568;2023-02-01T10:30:26;6.10;99.90
39815;DHT22;25495;45.948;4.568;2023-02-01T10:32:55;5.90;99.90
39815;DHT22;25495;45.948;4.568;2023-02-01T10:35:24;6.00;99.90
39815;DHT22;25495;45.948;4.568;2023-02-01T10:37:51;5.90;99.90
39815;DHT22;25495;45.948;4.568;2023-02-01T10:42:47;5.90;99.90
39815;DHT22;25495;45.948;4.568;2023-02-01T10:45:15;6.00;99.90
39815;DHT22;25495;45.948;4.568;2023-02-01T10:47:41;6.30;99.90
39815;DHT22;25495;45.948;4.568;2023-02-01T10:52:42;6.70;99.90
39815;DHT22;25495;45.948;4.568;2023-02-01T10:58:00;7.40;99.90
39815;DHT22;25495;45.948;4.568;2023-02-01T11:00:26;7.60;99.90
39815;DHT22;25495;45.948;4.568;2023-02-01T11:02:52;7.10;99.90
39815;DHT22;25495;45.948;4.568;2023-02-01T11:05:18;7.30;99.90
39815;DHT22;25495;45.948;4.568;2023-02-01T11:07:54;7.50;99.90
39815;DHT22;25495;45.948;4.568;2023-02-01T11:10:35;8.00;99.90
39815;DHT22;25495;45.948;4.568;2023-02-01T11:13:04;7.90;99.90
39815;DHT22;25495;45.948;4.568;2023-02-01T11:15:30;8.20;99.90
39815;DHT22;25495;45.948;4.568;2023-02-01T11:17:55;7.80;99.90
39815;DHT22;25495;45.948;4.568;2023-02-01T11:20:55;7.80;99.90
39815;DHT22;25495;45.948;4.568;2023-02-01T11:23:18;7.70;99.90
39815;DHT22;25495;45.948;4.568;2023-02-01T11:26:10;7.60;99.90
39815;DHT22;25495;45.948;4.568;2023-02-01T11:28:35;7.20;99.90
39815;DHT22;25495;45.948;4.568;2023-02-01T11:31:03;7.50;99.90
39815;DHT22;25495;45.948;4.568;2023-02-01T11:33:30;8.00;99.90
39815;DHT22;25495;45.948;4.568;2023-02-01T11:35:59;8.30;99.90
39815;DHT22;25495;45.948;4.568;2023-02-01T11:38:27;8.30;99.90
39815;DHT22;25495;45.948;4.568;2023-02-01T11:40:53;8.80;99.90
39815;DHT22;25495;45.948;4.568;2023-02-01T11:43:25;9.00;99.90
39815;DHT22;25495;45.948;4.568;2023-02-01T11:45:58;9.10;99.90
39815;DHT22;25495;45.948;4.568;2023-02-01T11:48:25;9.30;99.90
39815;DHT22;25495;45.948;4.568;2023-02-01T12:16:19;7.50;99.90
39815;DHT22;25495;45.948;4.568;2023-02-01T12:24:23;6.90;99.90
39815;DHT22;25495;45.948;4.568;2023-02-01T12:29:56;6.80;99.90
39815;DHT22;25495;45.948;4.568;2023-02-01T12:37:13;6.60;99.90
39815;DHT22;25495;45.948;4.568;2023-02-01T12:39:46;6.70;99.90
39815;DHT22;25495;45.948;4.568;2023-02-01T12:42:28;6.80;99.90
39815;DHT22;25495;45.948;4.568;2023-02-01T12:44:56;6.90;99.90
39815;DHT22;25495;45.948;4.568;2023-02-01T12:47:24;6.50;99.90
39815;DHT22;25495;45.948;4.568;2023-02-01T12:49:53;6.50;99.90
39815;DHT22;25495;45.948;4.568;2023-02-01T12:52:21;6.30;99.90
39815;DHT22;25495;45.948;4.568;2023-02-01T12:54:50;6.20;99.90
39815;DHT22;25495;45.948;4.568;2023-02-01T12:57:24;6.20;99.90
39815;DHT22;25495;45.948;4.568;2023-02-01T12:59:53;6.40;99.90
39815;DHT22;25495;45.948;4.568;2023-02-01T13:04:58;6.30;99.90
39815;DHT22;25495;45.948;4.568;2023-02-01T13:10:18;6.50;99.90
39815;DHT22;25495;45.948;4.568;2023-02-01T13:13:21;6.50;99.90
39815;DHT22;25495;45.948;4.568;2023-02-01T13:15:39;6.70;99.90
39815;DHT22;25495;45.948;4.568;2023-02-01T13:18:06;6.70;99.90
39815;DHT22;25495;45.948;4.568;2023-02-01T13:20:36;6.60;99.90
39815;DHT22;25495;45.948;4.568;2023-02-01T13:27:55;6.40;99.90
39815;DHT22;25495;45.948;4.568;2023-02-01T13:30:30;6.10;99.90
39815;DHT22;25495;45.948;4.568;2023-02-01T13:33:04;6.20;99.90
39815;DHT22;25495;45.948;4.568;2023-02-01T13:36:37;6.30;99.90
39815;DHT22;25495;45.948;4.568;2023-02-01T13:43:50;5.90;99.90
39815;DHT22;25495;45.948;4.568;2023-02-01T13:46:16;5.80;99.90
39815;DHT22;25495;45.948;4.568;2023-02-01T13:51:10;5.90;99.90
39815;DHT22;25495;45.948;4.568;2023-02-01T13:53:37;6.00;99.90
39815;DHT22;25495;45.948;4.568;2023-02-01T13:58:38;6.10;99.90
39815;DHT22;25495;45.948;4.568;2023-02-01T14:03:52;6.10;99.90
39815;DHT22;25495;45.948;4.568;2023-02-01T14:15:13;6.20;99.90
39815;DHT22;25495;45.948;4.568;2023-02-01T14:19:26;6.20;99.90
39815;DHT22;25495;45.948;4.568;2023-02-01T14:24:25;6.20;99.90
39815;DHT22;25495;45.948;4.568;2023-02-01T14:26:55;6.10;99.90
39815;DHT22;25495;45.948;4.568;2023-02-01T14:29:26;6.10;99.90
39815;DHT22;25495;45.948;4.568;2023-02-01T14:32:00;6.20;99.90
39815;DHT22;25495;45.948;4.568;2023-02-01T14:37:03;6.10;99.90
39815;DHT22;25495;45.948;4.568;2023-02-01T14:39:35;6.20;99.90
39815;DHT22;25495;45.948;4.568;2023-02-01T14:42:13;6.20;99.90
39815;DHT22;25495;45.948;4.568;2023-02-01T14:44:41;6.20;99.90
39815;DHT22;25495;45.948;4.568;2023-02-01T14:49:33;5.90;99.90
39815;DHT22;25495;45.948;4.568;2023-02-01T14:52:00;5.90;99.90
39815;DHT22;25495;45.948;4.568;2023-02-01T14:54:27;5.80;99.90
39815;DHT22;25495;45.948;4.568;2023-02-01T14:56:53;5.90;99.90
39815;DHT22;25495;45.948;4.568;2023-02-01T14:59:20;6.00;99.90
39815;DHT22;25495;45.948;4.568;2023-02-01T15:01:52;6.00;99.90
39815;DHT22;25495;45.948;4.568;2023-02-01T15:04:19;6.00;99.90
39815;DHT22;25495;45.948;4.568;2023-02-01T15:09:25;5.90;99.90
39815;DHT22;25495;45.948;4.568;2023-02-01T15:14:19;5.70;99.90
39815;DHT22;25495;45.948;4.568;2023-02-01T15:16:45;5.70;99.90
39815;DHT22;25495;45.948;4.568;2023-02-01T15:19:19;5.70;99.90
39815;DHT22;25495;45.948;4.568;2023-02-01T15:21:46;5.80;99.90
39815;DHT22;25495;45.948;4.568;2023-02-01T15:24:20;5.60;99.90
39815;DHT22;25495;45.948;4.568;2023-02-01T15:26:46;5.60;99.90
39815;DHT22;25495;45.948;4.568;2023-02-01T15:29:12;5.60;99.90
39815;DHT22;25495;45.948;4.568;2023-02-01T15:31:45;5.70;99.90
39815;DHT22;25495;45.948;4.568;2023-02-01T15:34:12;5.70;99.90
39815;DHT22;25495;45.948;4.568;2023-02-01T15:36:38;5.60;99.90
39815;DHT22;25495;45.948;4.568;2023-02-01T15:39:14;5.40;99.90
39815;DHT22;25495;45.948;4.568;2023-02-01T15:41:47;5.40;99.90
39815;DHT22;25495;45.948;4.568;2023-02-01T15:46:40;5.50;99.90
39815;DHT22;25495;45.948;4.568;2023-02-01T15:52:11;5.50;99.90
39815;DHT22;25495;45.948;4.568;2023-02-01T15:54:46;5.50;99.90
39815;DHT22;25495;45.948;4.568;2023-02-01T15:57:18;5.60;99.90
39815;DHT22;25495;45.948;4.568;2023-02-01T15:59:45;5.60;99.90
39815;DHT22;25495;45.948;4.568;2023-02-01T16:04:50;5.50;99.90
39815;DHT22;25495;45.948;4.568;2023-02-01T16:07:26;5.50;99.90
39815;DHT22;25495;45.948;4.568;2023-02-01T16:09:54;5.40;99.90
39815;DHT22;25495;45.948;4.568;2023-02-01T16:12:23;5.30;99.90
39815;DHT22;25495;45.948;4.568;2023-02-01T16:14:52;5.40;99.90
39815;DHT22;25495;45.948;4.568;2023-02-01T16:17:17;5.30;99.90
39815;DHT22;25495;45.948;4.568;2023-02-01T16:19:43;5.30;99.90
39815;DHT22;25495;45.948;4.568;2023-02-01T16:22:08;5.30;99.90
39815;DHT22;25495;45.948;4.568;2023-02-01T16:24:34;5.30;99.90
39815;DHT22;25495;45.948;4.568;2023-02-01T16:26:59;5.30;99.90
39815;DHT22;25495;45.948;4.568;2023-02-01T16:29:25;5.80;99.90
39815;DHT22;25495;45.948;4.568;2023-02-01T16:34:16;6.70;99.90
39815;DHT22;25495;45.948;4.568;2023-02-01T16:36:43;5.50;99.90
39815;DHT22;25495;45.948;4.568;2023-02-01T16:39:12;5.20;99.90
39815;DHT22;25495;45.948;4.568;2023-02-01T16:41:38;5.20;99.90
39815;DHT22;25495;45.948;4.568;2023-02-01T16:44:04;5.10;99.90
39815;DHT22;25495;45.948;4.568;2023-02-01T16:46:32;5.10;99.90
39815;DHT22;25495;45.948;4.568;2023-02-01T16:48:59;5.00;99.90
39815;DHT22;25495;45.948;4.568;2023-02-01T16:51:25;4.90;99.90
39815;DHT22;25495;45.948;4.568;2023-02-01T16:53:52;4.90;99.90
39815;DHT22;25495;45.948;4.568;2023-02-01T16:56:18;4.90;99.90
39815;DHT22;25495;45.948;4.568;2023-02-01T16:58:45;5.00;99.90
39815;DHT22;25495;45.948;4.568;2023-02-01T17:01:11;4.90;99.90
39815;DHT22;25495;45.948;4.568;2023-02-01T17:03:37;4.90;99.90
39815;DHT22;25495;45.948;4.568;2023-02-01T17:06:03;4.90;99.90
39815;DHT22;25495;45.948;4.568;2023-02-01T17:08:33;4.80;99.90
39815;DHT22;25495;45.948;4.568;2023-02-01T17:10:59;4.80;99.90
39815;DHT22;25495;45.948;4.568;2023-02-01T17:13:25;4.80;99.90
39815;DHT22;25495;45.948;4.568;2023-02-01T17:16:01;4.70;99.90
39815;DHT22;25495;45.948;4.568;2023-02-01T17:18:27;4.70;99.90
39815;DHT22;25495;45.948;4.568;2023-02-01T17:20:56;4.70;99.90
39815;DHT22;25495;45.948;4.568;2023-02-01T17:23:22;4.70;99.90
39815;DHT22;25495;45.948;4.568;2023-02-01T17:25:48;4.70;99.90
39815;DHT22;25495;45.948;4.568;2023-02-01T17:28:13;4.70;99.90
39815;DHT22;25495;45.948;4.568;2023-02-01T17:30:39;4.70;99.90
39815;DHT22;25495;45.948;4.568;2023-02-01T17:33:09;4.70;99.90
39815;DHT22;25495;45.948;4.568;2023-02-01T17:35:37;4.70;99.90
39815;DHT22;25495;45.948;4.568;2023-02-01T17:38:02;4.70;99.90
39815;DHT22;25495;45.948;4.568;2023-02-01T17:40:28;4.70;99.90
39815;DHT22;25495;45.948;4.568;2023-02-01T17:42:54;4.70;99.90
39815;DHT22;25495;45.948;4.568;2023-02-01T17:45:35;4.60;99.90
39815;DHT22;25495;45.948;4.568;2023-02-01T17:48:02;4.60;99.90
39815;DHT22;25495;45.948;4.568;2023-02-01T17:50:29;4.60;99.90
39815;DHT22;25495;45.948;4.568;2023-02-01T17:52:55;4.60;99.90
39815;DHT22;25495;45.948;4.568;2023-02-01T17:55:21;4.60;99.90
39815;DHT22;25495;45.948;4.568;2023-02-01T17:57:48;4.60;99.90
39815;DHT22;25495;45.948;4.568;2023-02-01T18:00:14;4.60;99.90
39815;DHT22;25495;45.948;4.568;2023-02-01T18:02:40;4.50;99.90
39815;DHT22;25495;45.948;4.568;2023-02-01T18:07:37;4.60;99.90
39815;DHT22;25495;45.948;4.568;2023-02-01T18:10:03;4.50;99.90
39815;DHT22;25495;45.948;4.568;2023-02-01T18:12:28;4.60;99.90
39815;DHT22;25495;45.948;4.568;2023-02-01T18:14:56;4.50;99.90
39815;DHT22;25495;45.948;4.568;2023-02-01T18:17:22;4.50;99.90
39815;DHT22;25495;45.948;4.568;2023-02-01T18:19:48;4.60;99.90
39815;DHT22;25495;45.948;4.568;2023-02-01T18:22:15;4.50;99.90
39815;DHT22;25495;45.948;4.568;2023-02-01T18:24:41;4.50;99.90
39815;DHT22;25495;45.948;4.568;2023-02-01T18:27:07;4.40;99.90
39815;DHT22;25495;45.948;4.568;2023-02-01T18:29:33;4.40;99.90